Time;durP1;ratioP1;P1;durP2;ratioP2;P2;SDS_P1;SDS_P2;PMS_P1;PMS_P2;Temp;Humidity;BMP_temperature;BMP_pressure;BME280_temperature;BME280_humidity;BME280_pressure;Samples;Min_cycle;Max_cycle;Signal;HPM_P1;HPM_P2
2021/09/25 00:00:31;;;;;;;17.20;10.50;;;;;;;;;;5072008;28;20041;-83
2021/09/25 00:03:01;;;;;;;17.60;11.00;;;;;;;;;;5072222;28;20328;-84
2021/09/25 00:05:28;;;;;;;16.42;10.20;;;;;;;;;;5072159;28;20025;-83
2021/09/25 00:07:54;;;;;;;12.15;9.27;;;;;;;;;;5059776;28;20025;-83
2021/09/25 00:10:20;;;;;;;16.95;8.77;;;;;;;;;;5060312;28;20017;-84
2021/09/25 00:12:46;;;;;;;12.43;8.85;;;;;;;;;;5075748;28;20024;-84
2021/09/25 00:15:12;;;;;;;11.95;8.35;;;;;;;;;;5060424;28;20025;-84
2021/09/25 00:17:39;;;;;;;12.55;8.25;;;;;;;;;;5060512;28;20032;-84
2021/09/25 00:20:05;;;;;;;9.98;7.55;;;;;;;;;;5060074;28;20108;-84
2021/09/25 00:22:31;;;;;;;10.63;8.48;;;;;;;;;;5059875;28;20033;-84
2021/09/25 00:24:57;;;;;;;12.48;9.55;;;;;;;;;;5059997;28;20108;-84
2021/09/25 00:27:24;;;;;;;10.30;8.38;;;;;;;;;;5075232;28;20033;-84
2021/09/25 00:29:50;;;;;;;10.63;8.32;;;;;;;;;;5059832;28;20033;-84
2021/09/25 00:32:16;;;;;;;10.88;7.70;;;;;;;;;;5075411;28;20031;-84
2021/09/25 00:34:42;;;;;;;10.68;8.30;;;;;;;;;;5059782;28;20028;-83
2021/09/25 00:37:08;;;;;;;11.15;8.18;;;;;;;;;;5059688;28;20071;-84
2021/09/25 00:39:34;;;;;;;11.82;8.52;;;;;;;;;;5059666;28;20310;-83
2021/09/25 00:42:01;;;;;;;10.85;8.23;;;;;;;;;;5075342;28;20288;-83
2021/09/25 00:44:28;;;;;;;11.52;8.52;;;;;;;;;;5074870;28;20116;-83
2021/09/25 00:46:56;;;;;;;13.02;9.95;;;;;;;;;;5059615;28;20292;-83
2021/09/25 00:49:22;;;;;;;13.95;9.68;;;;;;;;;;5059447;28;20037;-83
2021/09/25 00:51:48;;;;;;;16.27;11.13;;;;;;;;;;5075005;28;20060;-83
2021/09/25 00:54:15;;;;;;;14.75;11.80;;;;;;;;;;5074969;28;20106;-83
2021/09/25 00:56:43;;;;;;;16.95;13.50;;;;;;;;;;5059255;28;20040;-83
2021/09/25 00:59:09;;;;;;;16.67;12.93;;;;;;;;;;5058743;28;20057;-83
2021/09/25 01:01:35;;;;;;;11.88;9.85;;;;;;;;;;5059372;28;20166;-83
2021/09/25 01:04:01;;;;;;;9.98;8.38;;;;;;;;;;5059090;28;20024;-82
2021/09/25 01:06:27;;;;;;;13.07;9.30;;;;;;;;;;5059078;28;20029;-83
2021/09/25 01:08:53;;;;;;;11.07;9.20;;;;;;;;;;5059164;28;20037;-83
2021/09/25 01:11:20;;;;;;;16.05;9.50;;;;;;;;;;5058994;28;20116;-83
2021/09/25 01:13:46;;;;;;;16.60;9.63;;;;;;;;;;5058902;28;20025;-83
2021/09/25 01:16:12;;;;;;;13.93;10.18;;;;;;;;;;5074141;28;20445;-83
2021/09/25 01:18:38;;;;;;;14.35;9.23;;;;;;;;;;5058869;28;20406;-83
2021/09/25 01:21:08;;;;;;;16.52;11.43;;;;;;;;;;5058618;28;20411;-83
2021/09/25 01:23:35;;;;;;;19.52;11.38;;;;;;;;;;5074553;28;20407;-83
2021/09/25 01:26:01;;;;;;;18.05;11.70;;;;;;;;;;5074451;28;20066;-83
2021/09/25 01:28:28;;;;;;;16.92;10.52;;;;;;;;;;5058613;28;20029;-83
2021/09/25 01:30:55;;;;;;;19.33;10.88;;;;;;;;;;5058778;28;20029;-82
2021/09/25 01:33:28;;;;;;;20.10;12.18;;;;;;;;;;5074248;28;20434;-83
2021/09/25 01:35:55;;;;;;;17.35;10.85;;;;;;;;;;5058448;28;20052;-83
2021/09/25 01:38:21;;;;;;;19.67;11.30;;;;;;;;;;5058602;28;20032;-83
2021/09/25 01:40:47;;;;;;;14.32;10.73;;;;;;;;;;5074036;28;20032;-83
2021/09/25 01:43:13;;;;;;;15.70;10.30;;;;;;;;;;5058649;28;20323;-83
2021/09/25 01:45:39;;;;;;;14.10;10.55;;;;;;;;;;5073866;28;20323;-83
2021/09/25 01:48:05;;;;;;;13.88;9.73;;;;;;;;;;5073644;28;20036;-83
2021/09/25 01:50:34;;;;;;;15.07;10.05;;;;;;;;;;5058308;28;20040;-83
2021/09/25 01:53:00;;;;;;;12.40;9.65;;;;;;;;;;5058259;28;20396;-83
2021/09/25 01:55:26;;;;;;;12.55;10.77;;;;;;;;;;5073816;28;20025;-83
2021/09/25 01:57:52;;;;;;;14.13;9.52;;;;;;;;;;5058274;28;20025;-84
2021/09/25 02:00:19;;;;;;;13.50;10.18;;;;;;;;;;5057843;28;20084;-83
2021/09/25 02:02:45;;;;;;;15.90;10.43;;;;;;;;;;5058479;28;20051;-83
2021/09/25 02:05:15;;;;;;;16.00;10.27;;;;;;;;;;5058043;28;20056;-84
2021/09/25 02:07:41;;;;;;;13.32;10.15;;;;;;;;;;5073823;28;20017;-84
2021/09/25 02:10:07;;;;;;;13.23;9.65;;;;;;;;;;5058235;28;20314;-83
2021/09/25 02:12:33;;;;;;;12.95;10.07;;;;;;;;;;5058185;28;20029;-83
2021/09/25 02:14:59;;;;;;;13.27;9.55;;;;;;;;;;5058037;28;20041;-82
2021/09/25 02:17:25;;;;;;;15.48;10.25;;;;;;;;;;5073366;28;20032;-84
2021/09/25 02:19:52;;;;;;;13.52;9.93;;;;;;;;;;5057710;28;20029;-84
2021/09/25 02:22:18;;;;;;;13.48;9.00;;;;;;;;;;5073465;28;20025;-84
2021/09/25 02:24:44;;;;;;;16.13;9.65;;;;;;;;;;5072791;28;20445;-84
2021/09/25 02:27:10;;;;;;;13.65;10.07;;;;;;;;;;5057837;28;20025;-84
2021/09/25 02:29:36;;;;;;;14.25;9.65;;;;;;;;;;5057470;28;20044;-86
2021/09/25 02:32:03;;;;;;;10.95;9.50;;;;;;;;;;5073440;28;20048;-86
2021/09/25 02:34:29;;;;;;;15.40;9.23;;;;;;;;;;5073561;28;20032;-86
2021/09/25 02:36:57;;;;;;;12.27;9.45;;;;;;;;;;5057800;28;20037;-86
2021/09/25 02:39:24;;;;;;;12.43;9.23;;;;;;;;;;5057871;28;20025;-84
2021/09/25 02:41:50;;;;;;;15.00;10.07;;;;;;;;;;5057926;28;20021;-86
2021/09/25 02:44:16;;;;;;;13.35;9.95;;;;;;;;;;5058061;28;20066;-86
2021/09/25 02:46:42;;;;;;;12.80;9.80;;;;;;;;;;5073181;28;20029;-86
2021/09/25 02:49:09;;;;;;;14.73;9.98;;;;;;;;;;5057752;28;20021;-87
2021/09/25 02:51:35;;;;;;;13.60;9.93;;;;;;;;;;5072969;28;20024;-85
2021/09/25 02:54:01;;;;;;;12.57;10.43;;;;;;;;;;5057476;28;20017;-84
2021/09/25 02:56:27;;;;;;;12.02;9.65;;;;;;;;;;5057588;28;20025;-84
2021/09/25 02:58:53;;;;;;;12.55;10.18;;;;;;;;;;5072225;28;20083;-84
2021/09/25 03:01:19;;;;;;;15.57;9.70;;;;;;;;;;5057059;28;20029;-83
2021/09/25 03:03:45;;;;;;;17.17;10.07;;;;;;;;;;5057101;28;20024;-84
2021/09/25 03:06:11;;;;;;;11.95;10.05;;;;;;;;;;5056995;28;20025;-84
2021/09/25 03:08:37;;;;;;;16.83;11.05;;;;;;;;;;5072911;28;20056;-84
2021/09/25 03:11:03;;;;;;;17.95;11.38;;;;;;;;;;5057313;28;20036;-84
2021/09/25 03:13:29;;;;;;;15.95;11.50;;;;;;;;;;5057369;28;20100;-83
2021/09/25 03:15:55;;;;;;;15.15;10.70;;;;;;;;;;5057204;28;20025;-84
2021/09/25 03:18:21;;;;;;;13.57;10.43;;;;;;;;;;5056966;28;20079;-84
2021/09/25 03:20:47;;;;;;;13.30;9.75;;;;;;;;;;5072556;28;20025;-83
2021/09/25 03:23:13;;;;;;;15.20;10.35;;;;;;;;;;5057148;28;20070;-83
2021/09/25 03:25:39;;;;;;;12.60;10.50;;;;;;;;;;5057003;28;20028;-84
2021/09/25 03:28:06;;;;;;;12.70;10.50;;;;;;;;;;5056628;28;20029;-84
2021/09/25 03:30:32;;;;;;;11.15;9.10;;;;;;;;;;5057247;28;20029;-85
2021/09/25 03:32:58;;;;;;;13.00;9.85;;;;;;;;;;5072638;28;20040;-84
2021/09/25 03:35:26;;;;;;;12.15;9.93;;;;;;;;;;5056908;28;20029;-83
2021/09/25 03:37:52;;;;;;;12.52;10.15;;;;;;;;;;5056702;28;20035;-82
2021/09/25 03:40:18;;;;;;;13.35;9.65;;;;;;;;;;5071876;28;20120;-82
2021/09/25 03:42:44;;;;;;;14.05;10.38;;;;;;;;;;5075357;28;20048;-82
2021/09/25 03:45:10;;;;;;;14.27;10.15;;;;;;;;;;5060566;28;20025;-83
2021/09/25 03:47:36;;;;;;;16.17;10.20;;;;;;;;;;5076238;28;20035;-82
2021/09/25 03:50:03;;;;;;;14.15;10.30;;;;;;;;;;5060610;28;20032;-82
2021/09/25 03:52:29;;;;;;;15.23;11.05;;;;;;;;;;5060501;28;20025;-83
2021/09/25 03:54:55;;;;;;;14.68;10.45;;;;;;;;;;5060574;28;20032;-84
2021/09/25 03:57:21;;;;;;;12.68;9.88;;;;;;;;;;5060277;28;20304;-84
2021/09/25 03:59:47;;;;;;;15.18;10.15;;;;;;;;;;5075774;28;20409;-84
2021/09/25 04:02:13;;;;;;;13.98;10.32;;;;;;;;;;5060585;28;20027;-84
2021/09/25 04:04:39;;;;;;;16.92;11.13;;;;;;;;;;5060342;28;20025;-84
2021/09/25 04:07:05;;;;;;;13.88;10.38;;;;;;;;;;5060171;28;20044;-83
2021/09/25 04:09:31;;;;;;;14.10;10.98;;;;;;;;;;5075932;28;20021;-83
2021/09/25 04:11:57;;;;;;;13.27;11.05;;;;;;;;;;5060533;28;20116;-83
2021/09/25 04:14:24;;;;;;;17.48;11.38;;;;;;;;;;5060246;28;20025;-83
2021/09/25 04:16:50;;;;;;;14.88;11.85;;;;;;;;;;5076079;28;20025;-83
2021/09/25 04:19:16;;;;;;;24.30;15.80;;;;;;;;;;5059967;28;20415;-84
2021/09/25 04:21:42;;;;;;;33.42;20.17;;;;;;;;;;5075815;28;20029;-84
2021/09/25 04:24:08;;;;;;;32.10;21.08;;;;;;;;;;5060123;28;20021;-84
2021/09/25 04:26:34;;;;;;;30.48;20.65;;;;;;;;;;5060083;28;20021;-83
2021/09/25 04:29:01;;;;;;;31.00;19.42;;;;;;;;;;5059833;28;20029;-83
2021/09/25 04:31:27;;;;;;;23.15;16.58;;;;;;;;;;5075613;28;20029;-83
2021/09/25 04:33:53;;;;;;;20.88;15.35;;;;;;;;;;5060018;28;20080;-84
2021/09/25 04:36:19;;;;;;;20.10;14.82;;;;;;;;;;5059526;28;20021;-84
2021/09/25 04:38:45;;;;;;;16.48;13.02;;;;;;;;;;5059719;28;20056;-84
2021/09/25 04:41:11;;;;;;;21.15;12.57;;;;;;;;;;5079241;28;20035;-83
2021/09/25 04:43:37;;;;;;;15.07;11.90;;;;;;;;;;5080372;28;20013;-84
2021/09/25 04:46:03;;;;;;;13.43;11.10;;;;;;;;;;5067319;28;20029;-84
2021/09/25 04:48:29;;;;;;;14.43;11.20;;;;;;;;;;5067005;28;20288;-82
2021/09/25 04:50:55;;;;;;;15.00;10.70;;;;;;;;;;5065466;28;20029;-83
2021/09/25 04:53:21;;;;;;;19.00;12.02;;;;;;;;;;5079049;28;20055;-83
2021/09/25 04:55:47;;;;;;;16.65;11.95;;;;;;;;;;5079677;28;20113;-84
2021/09/25 04:58:13;;;;;;;15.57;11.85;;;;;;;;;;5079107;28;20024;-84
2021/09/25 05:00:40;;;;;;;19.52;12.55;;;;;;;;;;5079110;28;20040;-83
2021/09/25 05:03:06;;;;;;;16.88;11.52;;;;;;;;;;5079245;28;20074;-83
2021/09/25 05:05:32;;;;;;;15.48;11.07;;;;;;;;;;5078143;28;20017;-83
2021/09/25 05:07:58;;;;;;;14.45;10.95;;;;;;;;;;5078964;28;20398;-83
2021/09/25 05:10:24;;;;;;;16.90;10.90;;;;;;;;;;5079255;28;20112;-84
2021/09/25 05:12:50;;;;;;;15.43;11.45;;;;;;;;;;5078058;28;20020;-84
2021/09/25 05:15:16;;;;;;;15.23;11.10;;;;;;;;;;5077960;28;20410;-84
2021/09/25 05:17:42;;;;;;;14.98;10.95;;;;;;;;;;5079138;28;20141;-84
2021/09/25 05:20:09;;;;;;;15.07;10.88;;;;;;;;;;5078908;28;20055;-85
2021/09/25 05:22:35;;;;;;;14.25;11.27;;;;;;;;;;5079001;28;20031;-83
2021/09/25 05:25:02;;;;;;;15.13;11.73;;;;;;;;;;5079078;28;20021;-84
2021/09/25 05:27:28;;;;;;;13.15;11.00;;;;;;;;;;5078884;28;20425;-84
2021/09/25 05:29:54;;;;;;;14.55;11.45;;;;;;;;;;5078826;28;20163;-84
2021/09/25 05:32:20;;;;;;;15.23;11.80;;;;;;;;;;5078831;28;20056;-84
2021/09/25 05:34:46;;;;;;;13.98;11.13;;;;;;;;;;5078611;28;20456;-83
2021/09/25 05:37:14;;;;;;;13.82;11.00;;;;;;;;;;5077636;28;20036;-83
2021/09/25 05:39:40;;;;;;;17.10;10.98;;;;;;;;;;5077387;28;20051;-83
2021/09/25 05:42:06;;;;;;;14.50;11.82;;;;;;;;;;5077347;28;20024;-82
2021/09/25 05:44:33;;;;;;;19.80;11.88;;;;;;;;;;5077198;28;20028;-83
2021/09/25 05:46:59;;;;;;;27.60;16.52;;;;;;;;;;5077324;28;20012;-82
2021/09/25 05:49:25;;;;;;;19.50;14.13;;;;;;;;;;5078064;28;20406;-83
2021/09/25 05:51:51;;;;;;;17.48;13.60;;;;;;;;;;5078496;28;20036;-83
2021/09/25 05:54:17;;;;;;;14.70;11.68;;;;;;;;;;5076945;28;20020;-83
2021/09/25 05:56:43;;;;;;;16.58;11.77;;;;;;;;;;5078161;28;20044;-83
2021/09/25 05:59:09;;;;;;;19.30;11.27;;;;;;;;;;5077962;28;20044;-83
2021/09/25 06:01:36;;;;;;;22.65;14.65;;;;;;;;;;5078132;28;20028;-83
2021/09/25 06:04:03;;;;;;;14.73;12.05;;;;;;;;;;5076306;28;20128;-82
2021/09/25 06:06:29;;;;;;;13.05;10.98;;;;;;;;;;5078069;28;20074;-83
2021/09/25 06:08:55;;;;;;;14.52;12.02;;;;;;;;;;5077810;28;20016;-82
2021/09/25 06:11:21;;;;;;;14.30;11.40;;;;;;;;;;5078181;28;20040;-83
2021/09/25 06:13:47;;;;;;;17.60;12.10;;;;;;;;;;5077736;28;20028;-83
2021/09/25 06:16:13;;;;;;;14.35;11.65;;;;;;;;;;5076804;28;20036;-83
2021/09/25 06:18:39;;;;;;;15.27;11.18;;;;;;;;;;5077816;28;20029;-83
2021/09/25 06:21:05;;;;;;;14.50;11.45;;;;;;;;;;5077685;28;20161;-83
2021/09/25 06:23:31;;;;;;;17.08;11.50;;;;;;;;;;5077622;28;20031;-83
2021/09/25 06:25:57;;;;;;;15.73;11.73;;;;;;;;;;5076571;28;20025;-84
2021/09/25 06:28:23;;;;;;;16.38;11.90;;;;;;;;;;5076439;28;20040;-83
2021/09/25 06:30:49;;;;;;;18.23;12.93;;;;;;;;;;5077574;28;20489;-83
2021/09/25 06:33:16;;;;;;;19.13;13.70;;;;;;;;;;5077477;28;20322;-84
2021/09/25 06:35:42;;;;;;;26.75;16.95;;;;;;;;;;5077571;28;20028;-80
2021/09/25 06:38:08;;;;;;;24.90;17.08;;;;;;;;;;5077414;28;20055;-80
2021/09/25 06:40:34;;;;;;;27.95;17.48;;;;;;;;;;5075873;28;20044;-80
2021/09/25 06:43:00;;;;;;;29.98;18.40;;;;;;;;;;5077440;28;20031;-80
2021/09/25 06:45:32;;;;;;;27.63;18.45;;;;;;;;;;5077468;28;20099;-80
2021/09/25 06:47:58;;;;;;;38.80;22.83;;;;;;;;;;5077117;28;20100;-80
2021/09/25 06:50:24;;;;;;;37.55;22.38;;;;;;;;;;5077135;28;20410;-80
2021/09/25 06:52:50;;;;;;;43.47;26.58;;;;;;;;;;5077127;28;20407;-80
2021/09/25 06:55:16;;;;;;;52.35;27.92;;;;;;;;;;5077444;28;20029;-79
2021/09/25 06:57:43;;;;;;;52.88;29.13;;;;;;;;;;5077176;28;20081;-79
2021/09/25 07:00:09;;;;;;;52.83;29.67;;;;;;;;;;5076791;28;20106;-79
2021/09/25 07:02:39;;;;;;;49.90;28.70;;;;;;;;;;5077288;28;20028;-80
2021/09/25 07:05:05;;;;;;;50.58;31.48;;;;;;;;;;5077051;28;20031;-80
2021/09/25 07:07:32;;;;;;;37.28;23.95;;;;;;;;;;5077060;28;20078;-80
2021/09/25 07:09:58;;;;;;;33.42;19.65;;;;;;;;;;5076202;28;20020;-80
2021/09/25 07:12:25;;;;;;;25.30;15.45;;;;;;;;;;5075884;28;20040;-80
2021/09/25 07:14:51;;;;;;;33.70;21.27;;;;;;;;;;5076997;28;20025;-79
2021/09/25 07:17:17;;;;;;;29.50;19.10;;;;;;;;;;5081391;28;20172;-80
2021/09/25 07:19:43;;;;;;;56.47;36.92;;;;;;;;;;5081025;28;20070;-79
2021/09/25 07:22:10;;;;;;;25.15;15.82;;;;;;;;;;5080805;28;20406;-79
2021/09/25 07:24:36;;;;;;;22.17;15.00;;;;;;;;;;5080630;28;20468;-79
2021/09/25 07:27:02;;;;;;;40.67;28.73;;;;;;;;;;5079824;28;20028;-79
2021/09/25 07:29:28;;;;;;;18.33;11.98;;;;;;;;;;5080755;28;20051;-81
2021/09/25 07:31:55;;;;;;;20.83;14.90;;;;;;;;;;5079754;28;20082;-79
2021/09/25 07:34:22;;;;;;;17.85;13.45;;;;;;;;;;5079709;28;20120;-80
2021/09/25 07:36:48;;;;;;;25.20;17.30;;;;;;;;;;5080725;28;20021;-79
2021/09/25 07:39:14;;;;;;;9.25;7.80;;;;;;;;;;5080536;28;20050;-79
2021/09/25 07:41:41;;;;;;;10.07;7.53;;;;;;;;;;5080503;28;20029;-80
2021/09/25 07:44:07;;;;;;;17.88;10.02;;;;;;;;;;5080630;28;20048;-79
